createdAt,value
2022-08-27T00:00:49.585Z,57.57
2022-08-27T00:03:18.537Z,57.68
2022-08-27T00:05:46.242Z,57.82
2022-08-27T00:08:16.640Z,58.04
2022-08-27T00:10:44.291Z,58.11
2022-08-27T00:13:11.921Z,58.20
2022-08-27T00:15:39.608Z,58.32
2022-08-27T00:18:07.703Z,58.34
2022-08-27T00:20:35.477Z,58.37
2022-08-27T00:23:03.124Z,58.56
2022-08-27T00:25:30.890Z,58.72
2022-08-27T00:27:58.584Z,58.69
2022-08-27T00:30:26.346Z,58.76
2022-08-27T00:32:54.024Z,58.95
2022-08-27T00:35:21.637Z,59.18
2022-08-27T00:37:50.154Z,59.37
2022-08-27T00:40:21.406Z,59.49
2022-08-27T00:42:49.927Z,59.72
2022-08-27T00:45:22.891Z,59.80
2022-08-27T00:47:54.960Z,60.11
2022-08-27T00:50:49.022Z,60.41
2022-08-27T00:53:23.188Z,60.69
2022-08-27T00:55:59.905Z,60.85
2022-08-27T00:58:32.402Z,60.87
2022-08-27T01:01:01.479Z,61.00
2022-08-27T01:03:29.475Z,61.08
2022-08-27T01:06:01.520Z,61.19
2022-08-27T01:08:33.892Z,61.33
2022-08-27T01:11:02.366Z,61.49
2022-08-27T01:13:44.205Z,61.53
2022-08-27T01:16:26.916Z,61.86
2022-08-27T01:18:56.025Z,61.88
2022-08-27T01:21:38.959Z,61.98
2022-08-27T01:24:35.756Z,62.04
2022-08-27T01:27:08.096Z,62.02
2022-08-27T01:29:42.682Z,62.08
2022-08-27T01:32:23.697Z,61.89
2022-08-27T01:34:51.861Z,62.06
2022-08-27T01:37:23.968Z,61.87
2022-08-27T01:39:54.090Z,62.09
2022-08-27T01:42:40.283Z,62.19
2022-08-27T01:45:12.914Z,62.35
2022-08-27T01:47:41.151Z,62.48
2022-08-27T01:50:14.427Z,62.56
2022-08-27T01:52:42.120Z,62.75
2022-08-27T01:55:12.917Z,62.76
2022-08-27T01:57:40.944Z,62.89
2022-08-27T02:00:22.527Z,62.92
2022-08-27T02:02:51.556Z,63.22
2022-08-27T02:05:20.029Z,63.08
2022-08-27T02:07:47.710Z,63.18
2022-08-27T02:10:21.049Z,63.35
2022-08-27T02:12:49.518Z,63.37
2022-08-27T02:15:17.609Z,63.60
2022-08-27T02:17:46.362Z,63.51
2022-08-27T02:20:17.132Z,63.61
2022-08-27T02:22:45.209Z,63.71
2022-08-27T02:25:15.410Z,63.92
2022-08-27T02:27:44.126Z,64.00
2022-08-27T02:30:15.676Z,64.03
2022-08-27T02:32:45.560Z,64.13
2022-08-27T02:35:18.152Z,64.27
2022-08-27T02:37:46.412Z,64.51
2022-08-27T02:40:17.758Z,64.77
2022-08-27T02:42:46.571Z,64.90
2022-08-27T02:45:15.867Z,64.97
2022-08-27T02:47:43.626Z,65.09
2022-08-27T02:50:13.661Z,65.21
2022-08-27T02:52:41.761Z,65.32
2022-08-27T02:55:09.689Z,65.37
2022-08-27T02:57:38.417Z,65.51
2022-08-27T03:00:11.309Z,65.67
2022-08-27T03:02:39.210Z,65.75
2022-08-27T03:05:08.754Z,65.81
2022-08-27T03:07:37.233Z,66.06
2022-08-27T03:10:06.622Z,66.25
2022-08-27T03:12:36.242Z,66.46
2022-08-27T03:15:06.263Z,66.61
2022-08-27T03:17:49.832Z,66.64
2022-08-27T03:20:18.933Z,66.70
2022-08-27T03:22:46.655Z,66.79
2022-08-27T03:25:14.754Z,66.79
2022-08-27T03:27:42.583Z,66.92
2022-08-27T03:30:13.516Z,67.00
2022-08-27T03:32:42.147Z,67.14
2022-08-27T03:35:11.630Z,67.15
2022-08-27T03:37:39.603Z,67.29
2022-08-27T03:40:08.158Z,67.37
2022-08-27T03:42:37.261Z,67.49
2022-08-27T03:45:06.935Z,67.50
2022-08-27T03:47:35.601Z,67.53
2022-08-27T03:50:05.896Z,67.58
2022-08-27T03:52:35.712Z,67.65
2022-08-27T03:55:07.472Z,67.65
2022-08-27T03:57:35.736Z,67.90
2022-08-27T04:00:06.797Z,67.82
2022-08-27T04:02:41.824Z,67.96
2022-08-27T04:05:12.760Z,68.00
2022-08-27T04:07:41.302Z,68.10
2022-08-27T04:10:11.164Z,68.14
2022-08-27T04:12:39.329Z,68.24
2022-08-27T04:15:09.478Z,68.30
2022-08-27T04:17:37.301Z,68.37
2022-08-27T04:20:31.677Z,68.39
2022-08-27T04:22:55.404Z,68.57
2022-08-27T04:25:23.103Z,68.67
2022-08-27T04:27:51.107Z,68.78
2022-08-27T04:30:19.308Z,68.87
2022-08-27T04:32:46.982Z,68.97
2022-08-27T04:35:14.646Z,68.97
2022-08-27T04:37:42.376Z,69.01
2022-08-27T04:40:10.832Z,69.12
2022-08-27T04:42:38.624Z,69.20
2022-08-27T04:45:06.776Z,69.30
2022-08-27T04:47:35.596Z,69.31
2022-08-27T04:50:04.254Z,69.36
2022-08-27T04:52:33.617Z,69.46
2022-08-27T04:55:09.284Z,69.61
2022-08-27T04:57:37.978Z,69.71
2022-08-27T05:00:07.988Z,69.76
2022-08-27T05:02:35.618Z,69.79
2022-08-27T05:05:03.409Z,69.85
2022-08-27T05:07:31.114Z,69.81
2022-08-27T05:09:58.762Z,69.95
2022-08-27T05:12:26.430Z,69.86
2022-08-27T05:14:54.622Z,69.96
2022-08-27T05:17:22.304Z,70.03
2022-08-27T05:19:50.007Z,70.16
2022-08-27T05:22:17.680Z,70.15
2022-08-27T05:24:50.236Z,70.29
2022-08-27T05:27:18.334Z,70.33
2022-08-27T05:29:45.956Z,70.36
2022-08-27T05:32:13.651Z,70.30
2022-08-27T05:34:41.374Z,70.17
2022-08-27T05:37:09.066Z,70.13
2022-08-27T05:39:36.824Z,70.32
2022-08-27T05:42:04.711Z,70.36
2022-08-27T05:44:41.362Z,70.63
2022-08-27T05:47:10.202Z,70.71
2022-08-27T05:49:37.978Z,70.71
2022-08-27T05:52:09.472Z,70.87
2022-08-27T05:54:37.689Z,70.90
2022-08-27T05:57:05.894Z,70.88
2022-08-27T05:59:49.651Z,70.91
2022-08-27T06:02:19.102Z,70.89
2022-08-27T06:04:47.296Z,70.87
2022-08-27T06:07:15.493Z,70.72
2022-08-27T06:09:43.309Z,70.71
2022-08-27T06:12:11.010Z,70.83
2022-08-27T06:14:38.824Z,70.91
2022-08-27T06:17:06.514Z,70.97
2022-08-27T06:19:36.277Z,70.99
2022-08-27T06:22:09.774Z,70.78
2022-08-27T06:24:42.580Z,70.93
2022-08-27T06:27:16.967Z,71.00
2022-08-27T06:29:45.243Z,71.06
2022-08-27T06:32:14.665Z,70.96
2022-08-27T06:34:42.435Z,70.86
2022-08-27T06:37:10.457Z,70.69
2022-08-27T06:39:39.323Z,70.74
2022-08-27T06:42:11.035Z,70.66
2022-08-27T06:44:40.981Z,70.69
2022-08-27T06:47:08.735Z,70.74
2022-08-27T06:49:40.299Z,70.68
2022-08-27T06:52:08.107Z,70.59
2022-08-27T06:54:37.503Z,70.44
2022-08-27T06:57:05.193Z,70.36
2022-08-27T06:59:33.295Z,70.25
2022-08-27T07:02:01.011Z,70.21
2022-08-27T07:04:32.198Z,69.85
2022-08-27T07:07:02.666Z,69.67
2022-08-27T07:09:32.413Z,69.85
2022-08-27T07:12:01.405Z,69.93
2022-08-27T07:14:32.944Z,69.71
2022-08-27T07:17:05.427Z,69.44
2022-08-27T07:19:41.170Z,69.42
2022-08-27T07:22:09.371Z,69.22
2022-08-27T07:24:38.078Z,69.20
2022-08-27T07:27:06.919Z,69.18
2022-08-27T07:29:34.626Z,69.04
2022-08-27T07:32:02.503Z,68.82
2022-08-27T07:34:30.124Z,68.64
2022-08-27T07:36:57.773Z,68.61
2022-08-27T07:39:25.472Z,68.53
2022-08-27T07:42:12.923Z,68.18
2022-08-27T07:44:40.587Z,68.28
2022-08-27T07:47:08.310Z,68.05
2022-08-27T07:49:36.307Z,68.07
2022-08-27T07:52:04.455Z,67.95
2022-08-27T07:54:32.964Z,67.89
2022-08-27T07:57:01.538Z,67.92
2022-08-27T07:59:29.482Z,67.92
2022-08-27T08:01:57.964Z,68.30
2022-08-27T08:04:26.640Z,67.83
2022-08-27T08:06:55.787Z,67.58
2022-08-27T08:09:24.901Z,67.58
2022-08-27T08:11:53.994Z,67.36
2022-08-27T08:14:22.179Z,67.10
2022-08-27T08:16:50.290Z,67.06
2022-08-27T08:19:18.091Z,67.09
2022-08-27T08:21:45.725Z,67.12
2022-08-27T08:24:13.392Z,66.76
2022-08-27T08:26:42.004Z,66.68
2022-08-27T08:29:13.829Z,66.27
2022-08-27T08:31:50.272Z,65.98
2022-08-27T08:34:19.778Z,65.84
2022-08-27T08:36:52.456Z,65.74
2022-08-27T08:39:23.975Z,65.70
2022-08-27T08:41:57.504Z,65.48
2022-08-27T08:44:31.811Z,65.14
2022-08-27T08:47:14.578Z,64.97
2022-08-27T08:50:05.551Z,64.88
2022-08-27T08:52:52.309Z,64.59
2022-08-27T08:55:36.624Z,64.51
2022-08-27T08:58:15.165Z,64.15
2022-08-27T09:00:45.524Z,64.22
2022-08-27T09:03:15.925Z,63.86
2022-08-27T09:06:19.748Z,63.69
2022-08-27T09:08:47.800Z,63.43
2022-08-27T09:11:46.775Z,63.19
2022-08-27T09:14:45.354Z,62.90
2022-08-27T09:17:14.743Z,62.51
2022-08-27T09:19:43.130Z,62.26
2022-08-27T09:22:24.095Z,62.13
2022-08-27T09:25:11.640Z,61.86
2022-08-27T09:27:42.793Z,61.48
2022-08-27T09:30:16.470Z,61.13
2022-08-27T09:32:44.246Z,60.55
2022-08-27T09:35:15.186Z,60.51
2022-08-27T09:37:47.968Z,60.39
2022-08-27T09:40:23.835Z,60.12
2022-08-27T09:42:55.912Z,60.06
2022-08-27T09:45:29.932Z,59.33
2022-08-27T09:48:07.863Z,58.49
2022-08-27T09:51:00.468Z,58.19
2022-08-27T09:53:44.794Z,57.59
2022-08-27T09:56:35.486Z,57.30
2022-08-27T09:59:08.832Z,57.04
2022-08-27T10:02:13.120Z,56.76
2022-08-27T10:04:51.860Z,56.29
2022-08-27T10:07:41.870Z,55.64
2022-08-27T10:10:17.918Z,55.36
2022-08-27T10:12:51.828Z,55.49
2022-08-27T10:15:19.882Z,54.71
2022-08-27T10:17:50.395Z,54.18
2022-08-27T10:20:30.543Z,54.16
2022-08-27T10:23:29.667Z,53.83
2022-08-27T10:26:09.069Z,53.60
2022-08-27T10:29:08.109Z,53.14
2022-08-27T10:32:04.264Z,52.52
2022-08-27T10:34:57.111Z,52.46
2022-08-27T10:37:57.427Z,52.14
2022-08-27T10:40:50.790Z,52.42
2022-08-27T10:43:40.771Z,52.01
2022-08-27T10:46:27.326Z,51.74
2022-08-27T10:49:21.145Z,51.27
2022-08-27T10:52:13.377Z,51.33
2022-08-27T10:54:56.940Z,50.75
2022-08-27T10:57:55.179Z,50.85
2022-08-27T11:00:33.361Z,50.69
2022-08-27T11:03:37.254Z,50.25
2022-08-27T11:06:33.745Z,49.53
2022-08-27T11:09:17.387Z,49.39
2022-08-27T11:14:46.126Z,48.87
2022-08-27T11:17:32.645Z,48.75
2022-08-27T11:20:21.620Z,48.42
2022-08-27T11:22:56.529Z,47.95
2022-08-27T11:25:58.329Z,48.08
2022-08-27T11:28:30.392Z,47.89
2022-08-27T11:31:08.520Z,47.40
2022-08-27T11:33:42.802Z,47.31
2022-08-27T11:36:32.980Z,46.74
2022-08-27T11:39:21.688Z,46.79
2022-08-27T11:42:21.324Z,46.24
2022-08-27T11:44:57.509Z,45.79
2022-08-27T11:47:27.771Z,45.54
2022-08-27T11:50:02.046Z,45.19
2022-08-27T11:52:35.161Z,44.77
2022-08-27T11:55:31.459Z,45.27
2022-08-27T11:58:04.265Z,44.79
2022-08-27T12:00:37.438Z,44.16
2022-08-27T12:03:23.632Z,44.08
2022-08-27T12:05:54.357Z,43.88
2022-08-27T12:08:21.902Z,43.54
2022-08-27T12:11:02.289Z,43.50
2022-08-27T12:13:43.563Z,43.39
2022-08-27T12:16:47.527Z,43.52
2022-08-27T12:19:47.179Z,43.32
2022-08-27T12:23:01.434Z,42.65
2022-08-27T12:25:29.113Z,42.39
2022-08-27T12:28:04.271Z,42.17
2022-08-27T12:30:39.199Z,41.77
2022-08-27T12:33:18.742Z,41.22
2022-08-27T12:35:50.433Z,40.68
2022-08-27T12:38:36.718Z,40.59
2022-08-27T12:41:09.113Z,39.84
2022-08-27T12:43:43.166Z,38.74
2022-08-27T12:46:19.146Z,38.36
2022-08-27T12:48:54.148Z,37.63
2022-08-27T12:51:38.071Z,36.98
2022-08-27T12:54:36.635Z,35.22
2022-08-27T12:57:30.378Z,34.56
2022-08-27T13:00:12.716Z,33.06
2022-08-27T13:03:03.894Z,32.85
2022-08-27T13:05:49.509Z,32.59
2022-08-27T13:08:21.542Z,31.43
2022-08-27T13:10:50.282Z,30.59
2022-08-27T13:13:22.097Z,28.73
2022-08-27T13:15:53.202Z,28.57
2022-08-27T13:18:22.150Z,27.54
2022-08-27T13:21:00.119Z,26.47
2022-08-27T13:23:28.018Z,25.65
2022-08-27T13:26:10.122Z,24.06
2022-08-27T13:28:40.958Z,23.35
2022-08-27T13:31:12.974Z,22.81
2022-08-27T13:33:42.049Z,21.45
2022-08-27T13:36:10.241Z,20.32
2022-08-27T13:38:49.953Z,20.71
2022-08-27T13:41:30.375Z,19.84
2022-08-27T13:44:06.345Z,18.49
2022-08-27T13:46:48.705Z,18.24
2022-08-27T13:49:25.569Z,17.80
2022-08-27T13:52:17.363Z,16.54
2022-08-27T13:54:49.244Z,16.22
2022-08-27T13:57:48.820Z,15.94
2022-08-27T14:00:21.375Z,15.13
2022-08-27T14:02:55.830Z,14.12
2022-08-27T14:05:24.116Z,13.79
2022-08-27T14:07:58.248Z,14.11
2022-08-27T14:10:33.425Z,14.42
2022-08-27T14:13:06.276Z,13.36
2022-08-27T14:15:38.420Z,13.16
2022-08-27T14:18:32.175Z,11.35
2022-08-27T14:21:09.398Z,12.54
2022-08-27T14:23:37.346Z,12.97
2022-08-27T14:26:05.576Z,12.25
2022-08-27T14:28:33.224Z,12.14
2022-08-27T14:31:00.934Z,11.69
2022-08-27T14:33:28.695Z,11.51
2022-08-27T14:35:56.388Z,11.35
2022-08-27T14:38:26.701Z,11.53
2022-08-27T14:40:54.926Z,11.30
2022-08-27T14:43:22.968Z,11.61
2022-08-27T14:45:53.346Z,11.39
2022-08-27T14:48:28.555Z,11.54
2022-08-27T14:50:58.916Z,11.69
2022-08-27T14:53:26.907Z,11.62
2022-08-27T14:55:56.050Z,11.94
2022-08-27T14:58:23.683Z,12.22
2022-08-27T15:00:52.077Z,12.10
2022-08-27T15:03:20.021Z,11.95
2022-08-27T15:05:47.762Z,12.19
2022-08-27T15:08:16.801Z,12.29
2022-08-27T15:10:45.289Z,12.18
2022-08-27T15:13:13.233Z,12.45
2022-08-27T15:15:41.205Z,12.83
2022-08-27T15:18:09.494Z,13.25
2022-08-27T15:20:37.563Z,13.38
2022-08-27T15:23:05.262Z,13.73
2022-08-27T15:25:33.413Z,13.64
2022-08-27T15:28:01.155Z,14.34
2022-08-27T15:30:29.171Z,14.43
2022-08-27T15:32:56.944Z,14.58
2022-08-27T15:35:27.417Z,14.29
2022-08-27T15:37:56.944Z,14.12
2022-08-27T15:40:26.838Z,14.21
2022-08-27T15:43:02.211Z,14.24
2022-08-27T15:45:32.325Z,14.43
2022-08-27T15:48:00.342Z,14.43
2022-08-27T15:50:31.022Z,14.90
2022-08-27T15:53:01.851Z,14.84
2022-08-27T15:55:33.184Z,14.85
2022-08-27T15:58:01.252Z,15.37
2022-08-27T16:00:32.419Z,15.96
2022-08-27T16:03:01.209Z,16.31
2022-08-27T16:05:33.027Z,17.11
2022-08-27T16:08:00.725Z,17.32
2022-08-27T16:10:28.392Z,17.55
2022-08-27T16:12:56.080Z,17.71
2022-08-27T16:15:23.741Z,17.62
2022-08-27T16:18:00.101Z,17.71
2022-08-27T16:20:28.662Z,18.19
2022-08-27T16:22:56.437Z,18.36
2022-08-27T16:25:24.178Z,18.61
2022-08-27T16:27:53.391Z,18.89
2022-08-27T16:30:22.519Z,19.58
2022-08-27T16:32:55.899Z,20.07
2022-08-27T16:35:25.059Z,20.31
2022-08-27T16:37:52.676Z,20.61
2022-08-27T16:40:21.370Z,21.12
2022-08-27T16:42:51.228Z,21.73
2022-08-27T16:45:26.100Z,21.90
2022-08-27T16:48:09.898Z,22.04
2022-08-27T16:50:39.539Z,22.88
2022-08-27T16:53:13.899Z,23.41
2022-08-27T16:55:43.757Z,23.55
2022-08-27T16:58:31.711Z,24.11
2022-08-27T17:01:04.051Z,24.64
2022-08-27T17:03:32.059Z,25.07
2022-08-27T17:05:59.726Z,25.43
2022-08-27T17:08:30.242Z,25.51
2022-08-27T17:10:58.609Z,25.79
2022-08-27T17:13:30.110Z,26.26
2022-08-27T17:15:57.966Z,26.35
2022-08-27T17:18:27.532Z,26.87
2022-08-27T17:20:56.984Z,27.13
2022-08-27T17:23:29.407Z,28.06
2022-08-27T17:25:57.096Z,28.70
2022-08-27T17:28:24.885Z,28.08
2022-08-27T17:30:52.635Z,28.93
2022-08-27T17:33:28.562Z,29.10
2022-08-27T17:35:57.617Z,29.57
2022-08-27T17:38:25.247Z,29.78
2022-08-27T17:40:54.608Z,30.33
2022-08-27T17:43:22.884Z,30.73
2022-08-27T17:45:50.586Z,31.24
2022-08-27T17:48:22.652Z,31.95
2022-08-27T17:50:53.554Z,32.69
2022-08-27T17:53:21.489Z,33.16
2022-08-27T17:55:49.212Z,33.26
2022-08-27T17:58:16.925Z,33.47
2022-08-27T18:00:44.971Z,33.46
2022-08-27T18:03:18.979Z,33.63
2022-08-27T18:05:47.607Z,34.01
2022-08-27T18:08:15.311Z,34.33
2022-08-27T18:10:44.295Z,34.62
2022-08-27T18:13:14.728Z,34.99
2022-08-27T18:15:42.806Z,35.35
2022-08-27T18:18:11.480Z,35.64
2022-08-27T18:20:42.653Z,35.91
2022-08-27T18:23:10.998Z,36.37
2022-08-27T18:25:39.655Z,36.78
2022-08-27T18:28:11.073Z,36.93
2022-08-27T18:30:41.473Z,37.26
2022-08-27T18:33:10.453Z,37.75
2022-08-27T18:35:38.988Z,38.16
2022-08-27T18:38:07.136Z,38.67
2022-08-27T18:40:38.419Z,38.87
2022-08-27T18:43:06.084Z,39.42
2022-08-27T18:45:36.006Z,39.69
2022-08-27T18:48:24.791Z,40.25
2022-08-27T18:50:58.401Z,40.69
2022-08-27T18:53:29.007Z,41.39
2022-08-27T18:55:56.992Z,41.27
2022-08-27T18:58:25.166Z,41.62
2022-08-27T19:00:59.048Z,42.22
2022-08-27T19:03:31.228Z,42.70
2022-08-27T19:06:00.624Z,42.60
2022-08-27T19:08:28.856Z,42.84
2022-08-27T19:10:56.486Z,43.03
2022-08-27T19:13:24.190Z,43.29
2022-08-27T19:15:57.295Z,43.72
2022-08-27T19:18:27.463Z,44.25
2022-08-27T19:20:55.773Z,44.44
2022-08-27T19:23:23.953Z,44.79
2022-08-27T19:25:52.925Z,44.97
2022-08-27T19:28:26.618Z,45.44
2022-08-27T19:30:54.687Z,45.60
2022-08-27T19:33:22.685Z,45.87
2022-08-27T19:35:50.362Z,46.46
2022-08-27T19:38:18.216Z,46.70
2022-08-27T19:40:45.811Z,47.35
2022-08-27T19:43:13.427Z,47.58
2022-08-27T19:45:41.470Z,47.96
2022-08-27T19:48:09.191Z,48.33
2022-08-27T19:50:36.785Z,48.33
2022-08-27T19:53:04.405Z,48.78
2022-08-27T19:55:32.594Z,49.24
2022-08-27T19:58:00.225Z,49.46
2022-08-27T20:00:28.316Z,49.90
2022-08-27T20:02:56.253Z,50.14
2022-08-27T20:05:25.017Z,50.05
2022-08-27T20:07:53.096Z,50.51
2022-08-27T20:10:31.586Z,51.49
2022-08-27T20:13:05.565Z,53.00
2022-08-27T20:15:35.200Z,52.37
2022-08-27T20:18:04.159Z,52.23
2022-08-27T20:20:33.050Z,52.74
2022-08-27T20:23:03.572Z,52.63
2022-08-27T20:25:33.877Z,52.97
2022-08-27T20:28:16.294Z,53.24
2022-08-27T20:30:49.444Z,53.41
2022-08-27T20:33:17.156Z,53.22
2022-08-27T20:35:44.901Z,53.48
2022-08-27T20:38:12.854Z,53.38
2022-08-27T20:40:40.906Z,53.95
2022-08-27T20:43:08.549Z,54.10
2022-08-27T20:45:37.333Z,54.34
2022-08-27T20:48:05.094Z,54.13
2022-08-27T20:50:33.589Z,54.09
2022-08-27T20:53:01.385Z,54.02
2022-08-27T20:55:29.403Z,53.71
2022-08-27T20:58:13.352Z,53.74
2022-08-27T21:00:42.970Z,54.00
2022-08-27T21:03:13.192Z,53.74
2022-08-27T21:05:43.535Z,53.39
2022-08-27T21:08:11.534Z,53.08
2022-08-27T21:10:45.290Z,53.16
2022-08-27T21:13:13.686Z,53.52
2022-08-27T21:15:41.462Z,53.21
2022-08-27T21:18:09.154Z,53.35
2022-08-27T21:20:37.194Z,53.77
2022-08-27T21:23:04.918Z,54.26
2022-08-27T21:25:32.551Z,54.16
2022-08-27T21:28:03.350Z,54.39
2022-08-27T21:30:31.081Z,54.57
2022-08-27T21:32:58.856Z,54.54
2022-08-27T21:35:30.251Z,54.76
2022-08-27T21:37:59.540Z,54.90
2022-08-27T21:40:28.325Z,54.87
2022-08-27T21:42:58.150Z,54.47
2022-08-27T21:45:25.986Z,54.36
2022-08-27T21:47:54.075Z,54.65
2022-08-27T21:50:23.456Z,54.51
2022-08-27T21:52:51.696Z,54.48
2022-08-27T21:55:19.932Z,54.38
2022-08-27T21:57:47.669Z,54.42
2022-08-27T22:00:38.352Z,54.48
2022-08-27T22:03:10.212Z,54.74
2022-08-27T22:05:40.584Z,54.76
2022-08-27T22:08:10.784Z,54.93
2022-08-27T22:10:40.431Z,55.00
2022-08-27T22:13:09.273Z,54.95
2022-08-27T22:15:37.937Z,55.06
2022-08-27T22:18:06.384Z,55.25
2022-08-27T22:20:34.991Z,55.44
2022-08-27T22:23:05.100Z,55.41
2022-08-27T22:25:32.809Z,55.42
2022-08-27T22:28:00.444Z,55.42
2022-08-27T22:30:28.520Z,55.29
2022-08-27T22:32:56.962Z,55.33
2022-08-27T22:35:24.650Z,55.38
2022-08-27T22:37:55.220Z,55.59
2022-08-27T22:40:24.599Z,55.92
2022-08-27T22:42:54.049Z,56.18
2022-08-27T22:45:22.230Z,56.35
2022-08-27T22:47:50.139Z,56.45
2022-08-27T22:50:18.738Z,56.67
2022-08-27T22:52:47.692Z,56.71
2022-08-27T22:55:19.358Z,56.75
2022-08-27T22:57:52.649Z,56.93
2022-08-27T23:00:27.013Z,56.95
2022-08-27T23:02:55.557Z,57.12
2022-08-27T23:05:24.503Z,57.17
2022-08-27T23:07:54.969Z,57.06
2022-08-27T23:10:24.493Z,57.12
2022-08-27T23:12:53.786Z,57.05
2022-08-27T23:15:28.098Z,57.12
2022-08-27T23:17:56.684Z,57.17
2022-08-27T23:20:25.922Z,56.97
2022-08-27T23:22:54.774Z,56.96
2022-08-27T23:25:40.629Z,56.96
2022-08-27T23:28:15.061Z,57.09
2022-08-27T23:30:44.803Z,57.07
2022-08-27T23:33:13.243Z,57.08
2022-08-27T23:35:44.351Z,57.21
2022-08-27T23:38:12.156Z,57.28
2022-08-27T23:40:40.905Z,57.31
2022-08-27T23:43:08.872Z,57.49
2022-08-27T23:45:40.599Z,57.60
2022-08-27T23:48:08.576Z,57.84
2022-08-27T23:50:37.101Z,57.83
2022-08-27T23:53:07.384Z,57.84
2022-08-27T23:55:36.156Z,57.84
2022-08-27T23:58:04.593Z,57.93
